createdAt,value
2022-10-06T00:01:45.781Z,20.08
2022-10-06T00:03:47.126Z,20.09
2022-10-06T00:05:48.386Z,20.10
2022-10-06T00:07:50.071Z,20.09
2022-10-06T00:09:51.395Z,20.08
2022-10-06T00:11:52.824Z,20.07
2022-10-06T00:13:54.091Z,20.06
2022-10-06T00:15:55.398Z,20.04
2022-10-06T00:17:56.906Z,20.02
2022-10-06T00:19:58.179Z,20.01
2022-10-06T00:21:59.438Z,20.01
2022-10-06T00:24:00.700Z,19.99
2022-10-06T00:26:01.973Z,19.99
2022-10-06T00:28:03.367Z,20.00
2022-10-06T00:30:04.667Z,19.97
2022-10-06T00:32:05.968Z,19.96
2022-10-06T00:34:07.267Z,19.95
2022-10-06T00:36:08.750Z,19.95
2022-10-06T00:38:10.015Z,19.96
2022-10-06T00:40:11.331Z,19.97
2022-10-06T00:42:12.602Z,19.96
2022-10-06T00:44:13.906Z,19.96
2022-10-06T00:46:15.278Z,19.97
2022-10-06T00:48:16.579Z,19.97
2022-10-06T00:50:17.857Z,19.98
2022-10-06T00:52:19.225Z,19.99
2022-10-06T00:54:20.531Z,20.03
2022-10-06T00:56:21.815Z,20.07
2022-10-06T00:58:23.128Z,20.06
2022-10-06T01:00:24.395Z,20.06
2022-10-06T01:02:26.067Z,20.04
2022-10-06T01:04:27.386Z,20.03
2022-10-06T01:06:28.735Z,20.04
2022-10-06T01:08:30.541Z,20.06
2022-10-06T01:10:32.014Z,20.06
2022-10-06T01:12:33.511Z,20.07
2022-10-06T01:14:34.783Z,20.08
2022-10-06T01:16:37.598Z,20.09
2022-10-06T01:18:38.907Z,20.10
2022-10-06T01:20:40.208Z,20.09
2022-10-06T01:22:41.483Z,20.08
2022-10-06T01:24:42.773Z,20.06
2022-10-06T01:26:44.059Z,20.05
2022-10-06T01:28:45.468Z,20.02
2022-10-06T01:30:50.854Z,20.02
2022-10-06T01:32:52.234Z,19.99
2022-10-06T01:34:53.522Z,19.99
2022-10-06T01:36:54.807Z,19.96
2022-10-06T01:38:56.118Z,19.96
2022-10-06T01:40:57.410Z,19.94
2022-10-06T01:42:58.952Z,19.93
2022-10-06T01:45:00.215Z,19.92
2022-10-06T01:47:01.509Z,19.92
2022-10-06T01:49:02.810Z,19.91
2022-10-06T01:51:04.107Z,19.90
2022-10-06T01:53:05.383Z,19.89
2022-10-06T01:55:06.879Z,19.91
2022-10-06T01:57:10.991Z,19.90
2022-10-06T01:59:12.323Z,19.89
2022-10-06T02:01:13.732Z,19.88
2022-10-06T02:03:15.099Z,19.91
2022-10-06T02:05:16.619Z,19.93
2022-10-06T02:07:17.948Z,19.98
2022-10-06T02:09:19.235Z,20.00
2022-10-06T02:11:20.496Z,20.03
2022-10-06T02:13:23.239Z,20.05
2022-10-06T02:15:25.075Z,20.09
2022-10-06T02:17:26.362Z,20.11
2022-10-06T02:19:27.632Z,20.12
2022-10-06T02:21:28.899Z,20.15
2022-10-06T02:23:30.187Z,20.19
2022-10-06T02:25:31.491Z,20.21
2022-10-06T02:27:32.789Z,20.22
2022-10-06T02:29:34.115Z,20.23
2022-10-06T02:31:35.450Z,20.20
2022-10-06T02:33:36.770Z,20.21
2022-10-06T02:35:38.266Z,20.20
2022-10-06T02:37:39.992Z,20.20
2022-10-06T02:39:41.271Z,20.19
2022-10-06T02:41:42.583Z,20.33
2022-10-06T02:43:43.871Z,20.33
2022-10-06T02:45:45.135Z,20.23
2022-10-06T02:47:46.564Z,20.14
2022-10-06T02:49:47.910Z,20.10
2022-10-06T02:51:49.215Z,20.02
2022-10-06T02:53:50.543Z,20.22
2022-10-06T02:55:52.283Z,20.29
2022-10-06T02:57:53.559Z,20.20
2022-10-06T02:59:55.047Z,20.13
2022-10-06T03:01:56.432Z,20.08
2022-10-06T03:03:57.818Z,20.00
2022-10-06T03:05:59.106Z,19.95
2022-10-06T03:08:00.378Z,19.91
2022-10-06T03:10:01.696Z,19.90
2022-10-06T03:12:03.050Z,19.88
2022-10-06T03:14:04.375Z,19.86
2022-10-06T03:16:05.706Z,19.83
2022-10-06T03:18:07.023Z,19.80
2022-10-06T03:20:08.299Z,19.79
2022-10-06T03:22:10.561Z,19.78
2022-10-06T03:24:11.923Z,19.77
2022-10-06T03:26:13.281Z,19.76
2022-10-06T03:28:15.120Z,19.77
2022-10-06T03:30:16.421Z,19.77
2022-10-06T03:32:18.075Z,19.78
2022-10-06T03:34:19.396Z,19.77
2022-10-06T03:36:20.656Z,19.78
2022-10-06T03:38:21.988Z,19.79
2022-10-06T03:40:23.286Z,19.81
2022-10-06T03:42:24.555Z,19.78
2022-10-06T03:44:25.872Z,19.79
2022-10-06T03:46:27.202Z,19.77
2022-10-06T03:48:28.821Z,19.78
2022-10-06T03:50:30.259Z,19.77
2022-10-06T03:52:31.523Z,19.75
2022-10-06T03:54:32.849Z,19.75
2022-10-06T03:56:34.133Z,19.76
2022-10-06T03:58:35.426Z,19.76
2022-10-06T04:00:36.801Z,19.77
2022-10-06T04:02:38.095Z,19.78
2022-10-06T04:04:39.448Z,19.76
2022-10-06T04:06:40.795Z,19.75
2022-10-06T04:08:42.279Z,19.75
2022-10-06T04:10:43.556Z,19.73
2022-10-06T04:12:44.815Z,19.71
2022-10-06T04:14:46.083Z,19.69
2022-10-06T04:16:47.485Z,19.67
2022-10-06T04:18:48.802Z,19.66
2022-10-06T04:20:50.064Z,19.64
2022-10-06T04:22:51.829Z,19.64
2022-10-06T04:24:53.198Z,19.63
2022-10-06T04:27:14.418Z,19.63
2022-10-06T04:29:15.691Z,19.63
2022-10-06T04:31:17.155Z,19.64
2022-10-06T04:33:19.879Z,19.65
2022-10-06T04:35:21.140Z,19.65
2022-10-06T04:37:22.414Z,19.68
2022-10-06T04:39:23.692Z,19.67
2022-10-06T04:41:24.982Z,19.68
2022-10-06T04:43:28.075Z,19.68
2022-10-06T04:45:29.413Z,19.67
2022-10-06T04:47:30.787Z,19.68
2022-10-06T04:49:32.119Z,19.66
2022-10-06T04:51:33.431Z,19.66
2022-10-06T04:53:34.751Z,19.67
2022-10-06T04:55:36.044Z,19.69
2022-10-06T04:57:37.312Z,19.69
2022-10-06T04:59:59.492Z,19.68
2022-10-06T05:02:06.996Z,19.69
2022-10-06T05:04:08.347Z,19.68
2022-10-06T05:06:09.705Z,19.68
2022-10-06T05:08:11.069Z,19.68
2022-10-06T05:10:12.344Z,19.68
2022-10-06T05:12:13.642Z,19.67
2022-10-06T05:14:14.938Z,19.69
2022-10-06T05:16:16.300Z,19.69
2022-10-06T05:18:17.653Z,19.69
2022-10-06T05:20:22.786Z,19.69
2022-10-06T05:22:24.051Z,19.69
2022-10-06T05:24:25.384Z,19.68
2022-10-06T05:26:26.712Z,19.68
2022-10-06T05:28:28.421Z,19.67
2022-10-06T05:30:29.931Z,19.67
2022-10-06T05:32:35.783Z,19.65
2022-10-06T05:34:37.413Z,19.67
2022-10-06T05:36:39.023Z,19.67
2022-10-06T05:38:40.340Z,19.67
2022-10-06T05:40:41.614Z,19.67
2022-10-06T05:42:42.931Z,19.67
2022-10-06T05:44:44.243Z,19.68
2022-10-06T05:46:45.514Z,19.67
2022-10-06T05:48:47.742Z,19.66
2022-10-06T05:50:49.241Z,19.67
2022-10-06T05:52:51.099Z,19.67
2022-10-06T05:54:52.363Z,18.78
2022-10-06T05:56:53.758Z,19.67
2022-10-06T05:58:55.029Z,19.67
2022-10-06T06:00:56.344Z,19.67
2022-10-06T06:02:58.252Z,19.51
2022-10-06T06:04:59.588Z,19.67
2022-10-06T06:07:00.861Z,19.66
2022-10-06T06:09:02.234Z,19.66
2022-10-06T06:11:03.532Z,19.65
2022-10-06T06:13:04.856Z,19.65
2022-10-06T06:15:25.035Z,19.65
2022-10-06T06:17:26.355Z,19.66
2022-10-06T06:19:29.211Z,19.66
2022-10-06T06:21:30.785Z,19.66
2022-10-06T06:23:32.093Z,19.66
2022-10-06T06:25:33.413Z,19.65
2022-10-06T06:27:35.680Z,19.65
2022-10-06T06:29:37.339Z,19.64
2022-10-06T06:31:38.756Z,19.63
2022-10-06T06:33:40.077Z,19.62
2022-10-06T06:35:41.894Z,19.62
2022-10-06T06:37:43.266Z,19.60
2022-10-06T06:39:44.539Z,19.59
2022-10-06T06:41:46.156Z,19.57
2022-10-06T06:43:47.521Z,19.57
2022-10-06T06:45:48.820Z,19.56
2022-10-06T06:47:50.823Z,19.53
2022-10-06T06:49:52.142Z,19.52
2022-10-06T06:51:54.495Z,19.51
2022-10-06T06:53:55.927Z,19.52
2022-10-06T06:55:58.015Z,19.51
2022-10-06T06:57:59.361Z,19.51
2022-10-06T07:00:05.202Z,19.54
2022-10-06T07:02:06.509Z,19.55
2022-10-06T07:04:07.875Z,19.54
2022-10-06T07:06:09.470Z,19.56
2022-10-06T07:08:11.826Z,19.58
2022-10-06T07:10:13.143Z,19.57
2022-10-06T07:12:14.426Z,19.57
2022-10-06T07:14:15.710Z,19.57
2022-10-06T07:16:35.625Z,19.57
2022-10-06T07:18:55.487Z,19.56
2022-10-06T07:21:15.298Z,19.54
2022-10-06T07:23:35.058Z,19.55
2022-10-06T07:25:36.804Z,19.55
2022-10-06T07:27:38.083Z,19.55
2022-10-06T07:29:39.414Z,19.57
2022-10-06T07:31:43.718Z,19.57
2022-10-06T07:33:45.042Z,19.57
2022-10-06T07:35:46.531Z,19.58
2022-10-06T07:37:47.806Z,19.59
2022-10-06T07:39:49.709Z,19.59
2022-10-06T07:41:51.012Z,19.58
2022-10-06T07:43:55.329Z,19.58
2022-10-06T07:45:57.309Z,19.56
2022-10-06T07:47:58.919Z,19.56
2022-10-06T07:50:00.243Z,19.56
2022-10-06T07:52:02.548Z,19.58
2022-10-06T07:54:03.818Z,19.57
2022-10-06T07:56:05.270Z,19.58
2022-10-06T07:58:09.323Z,19.58
2022-10-06T08:00:10.602Z,19.59
2022-10-06T08:02:11.959Z,19.60
2022-10-06T08:04:13.371Z,19.58
2022-10-06T08:06:17.350Z,19.58
2022-10-06T08:08:18.790Z,19.58
2022-10-06T08:10:20.848Z,19.57
2022-10-06T08:12:34.668Z,19.55
2022-10-06T08:14:35.988Z,19.54
2022-10-06T08:16:37.311Z,19.53
2022-10-06T08:18:46.601Z,19.51
2022-10-06T08:20:48.467Z,19.49
2022-10-06T08:22:49.839Z,19.47
2022-10-06T08:25:08.298Z,19.46
2022-10-06T08:27:09.879Z,19.45
2022-10-06T08:29:11.596Z,19.45
2022-10-06T08:31:13.186Z,19.43
2022-10-06T08:33:14.555Z,19.43
2022-10-06T08:35:16.843Z,19.40
2022-10-06T08:37:20.940Z,19.38
2022-10-06T08:39:22.322Z,19.36
2022-10-06T08:41:23.657Z,19.35
2022-10-06T08:43:25.007Z,19.34
2022-10-06T08:45:26.282Z,19.34
2022-10-06T08:47:27.648Z,19.32
2022-10-06T08:49:31.235Z,19.31
2022-10-06T08:51:32.506Z,19.29
2022-10-06T08:53:33.835Z,19.27
2022-10-06T08:55:35.359Z,19.26
2022-10-06T08:57:36.700Z,19.25
2022-10-06T08:59:38.012Z,19.23
2022-10-06T09:01:39.437Z,19.23
2022-10-06T09:03:40.991Z,19.22
2022-10-06T09:05:42.316Z,19.21
2022-10-06T09:07:43.907Z,19.19
2022-10-06T09:09:45.631Z,19.19
2022-10-06T09:11:46.946Z,19.17
2022-10-06T09:13:52.230Z,19.16
2022-10-06T09:15:55.029Z,19.15
2022-10-06T09:17:56.350Z,19.15
2022-10-06T09:19:58.078Z,19.16
2022-10-06T09:22:00.762Z,19.19
2022-10-06T09:24:03.825Z,19.23
2022-10-06T09:26:05.154Z,19.26
2022-10-06T09:28:06.466Z,19.30
2022-10-06T09:30:08.596Z,19.34
2022-10-06T09:32:11.023Z,19.36
2022-10-06T09:34:12.771Z,19.38
2022-10-06T09:36:14.930Z,19.39
2022-10-06T09:38:16.205Z,19.42
2022-10-06T09:40:18.410Z,19.41
2022-10-06T09:42:19.783Z,19.41
2022-10-06T09:44:21.103Z,19.42
2022-10-06T09:46:22.428Z,19.41
2022-10-06T09:48:25.086Z,19.41
2022-10-06T09:50:27.639Z,19.41
2022-10-06T09:52:28.946Z,19.41
2022-10-06T09:54:30.323Z,19.41
2022-10-06T09:56:31.609Z,19.42
2022-10-06T09:58:34.792Z,19.42
2022-10-06T10:00:36.217Z,19.43
2022-10-06T10:02:37.678Z,19.42
2022-10-06T10:04:38.986Z,19.39
2022-10-06T10:06:41.731Z,19.38
2022-10-06T10:08:43.046Z,19.38
2022-10-06T10:10:44.319Z,19.38
2022-10-06T10:12:45.621Z,19.35
2022-10-06T10:14:47.444Z,19.35
2022-10-06T10:16:53.001Z,19.35
2022-10-06T10:18:55.153Z,19.58
2022-10-06T10:20:57.504Z,19.74
2022-10-06T10:22:59.496Z,19.70
2022-10-06T10:25:00.769Z,19.58
2022-10-06T10:27:02.710Z,19.71
2022-10-06T10:29:04.039Z,19.68
2022-10-06T10:31:05.702Z,19.59
2022-10-06T10:33:07.072Z,19.58
2022-10-06T10:35:08.356Z,19.56
2022-10-06T10:37:10.081Z,19.67
2022-10-06T10:39:11.602Z,19.82
2022-10-06T10:41:13.317Z,19.88
2022-10-06T10:43:14.596Z,19.92
2022-10-06T10:45:16.300Z,19.83
2022-10-06T10:47:17.588Z,19.88
2022-10-06T10:49:18.932Z,19.92
2022-10-06T10:51:20.282Z,19.96
2022-10-06T10:53:21.656Z,19.81
2022-10-06T10:55:23.322Z,19.70
2022-10-06T10:57:25.169Z,19.60
2022-10-06T10:59:26.446Z,19.52
2022-10-06T11:01:27.727Z,19.49
2022-10-06T11:03:28.995Z,19.50
2022-10-06T11:05:32.156Z,19.47
2022-10-06T11:07:33.432Z,19.56
2022-10-06T11:09:34.719Z,19.49
2022-10-06T11:11:36.718Z,19.57
2022-10-06T11:13:38.026Z,19.76
2022-10-06T11:15:39.292Z,19.77
2022-10-06T11:17:44.241Z,19.89
2022-10-06T11:19:45.727Z,20.02
2022-10-06T11:21:46.999Z,20.10
2022-10-06T11:23:48.311Z,20.15
2022-10-06T11:25:49.593Z,20.22
2022-10-06T11:27:50.955Z,19.60
2022-10-06T11:29:52.488Z,20.31
2022-10-06T11:31:54.669Z,20.32
2022-10-06T11:33:56.180Z,20.19
2022-10-06T11:35:57.485Z,20.18
2022-10-06T11:37:59.749Z,20.25
2022-10-06T11:40:01.382Z,20.26
2022-10-06T11:42:02.993Z,20.33
2022-10-06T11:44:04.470Z,20.38
2022-10-06T11:46:05.918Z,20.41
2022-10-06T11:48:07.299Z,20.35
2022-10-06T11:50:08.565Z,20.22
2022-10-06T11:52:10.042Z,20.26
2022-10-06T11:54:11.303Z,20.16
2022-10-06T11:56:12.581Z,20.15
2022-10-06T12:00:35.374Z,20.34
2022-10-06T12:02:36.828Z,20.33
2022-10-06T12:04:38.163Z,20.39
2022-10-06T12:06:39.427Z,20.40
2022-10-06T12:08:41.544Z,20.43
2022-10-06T12:10:42.822Z,20.46
2022-10-06T12:12:45.901Z,20.51
2022-10-06T12:17:19.092Z,20.47
2022-10-06T12:19:21.076Z,20.59
2022-10-06T12:21:24.200Z,20.65
2022-10-06T12:23:25.518Z,20.66
2022-10-06T12:25:27.932Z,20.70
2022-10-06T12:27:29.426Z,20.76
2022-10-06T12:29:30.707Z,21.28
2022-10-06T12:31:31.976Z,21.32
2022-10-06T12:33:33.271Z,21.08
2022-10-06T12:35:34.611Z,20.94
2022-10-06T12:37:36.061Z,20.87
2022-10-06T12:39:37.396Z,20.85
2022-10-06T12:41:38.685Z,20.83
2022-10-06T12:43:39.959Z,20.80
2022-10-06T12:45:45.779Z,20.66
2022-10-06T12:47:47.464Z,20.53
2022-10-06T12:49:48.781Z,20.51
2022-10-06T12:51:51.352Z,20.48
2022-10-06T12:53:53.644Z,20.97
2022-10-06T12:55:54.942Z,21.60
2022-10-06T12:57:56.278Z,21.94
2022-10-06T12:59:58.157Z,21.98
2022-10-06T13:01:59.568Z,22.33
2022-10-06T13:04:00.979Z,22.38
2022-10-06T13:06:04.998Z,22.64
2022-10-06T13:08:06.366Z,22.31
2022-10-06T13:10:07.677Z,21.89
2022-10-06T13:12:08.982Z,21.60
2022-10-06T13:14:10.307Z,21.48
2022-10-06T13:16:12.527Z,21.43
2022-10-06T13:18:13.887Z,21.42
2022-10-06T13:20:15.178Z,21.43
2022-10-06T13:22:16.459Z,21.42
2022-10-06T13:24:19.402Z,21.40
2022-10-06T13:26:21.782Z,21.38
2022-10-06T13:28:23.319Z,21.36
2022-10-06T13:30:24.636Z,20.50
2022-10-06T13:32:25.934Z,21.31
2022-10-06T13:34:27.206Z,21.30
2022-10-06T13:36:28.474Z,21.31
2022-10-06T13:38:34.863Z,21.32
2022-10-06T13:40:44.995Z,21.30
2022-10-06T13:42:46.828Z,21.29
2022-10-06T13:44:49.515Z,21.30
2022-10-06T13:46:50.867Z,21.21
2022-10-06T13:48:52.389Z,21.08
2022-10-06T13:50:53.717Z,20.93
2022-10-06T13:52:55.220Z,20.84
2022-10-06T13:54:56.792Z,20.77
2022-10-06T13:56:58.605Z,20.70
2022-10-06T13:58:59.879Z,20.65
2022-10-06T14:01:03.499Z,20.65
2022-10-06T14:03:04.940Z,20.66
2022-10-06T14:05:06.311Z,20.63
2022-10-06T14:07:07.582Z,20.61
2022-10-06T14:09:08.879Z,20.63
2022-10-06T14:11:10.160Z,20.62
2022-10-06T14:13:11.492Z,20.59
2022-10-06T14:15:12.787Z,20.55
2022-10-06T14:17:14.060Z,20.55
2022-10-06T14:19:15.739Z,20.52
2022-10-06T14:21:17.167Z,20.49
2022-10-06T14:23:18.528Z,20.46
2022-10-06T14:25:19.835Z,20.52
2022-10-06T14:27:21.141Z,20.64
2022-10-06T14:29:22.457Z,20.72
2022-10-06T14:31:23.866Z,20.78
2022-10-06T14:33:25.222Z,20.82
2022-10-06T14:35:26.514Z,20.91
2022-10-06T14:37:27.814Z,20.84
2022-10-06T14:39:29.111Z,20.75
2022-10-06T14:41:30.436Z,20.70
2022-10-06T14:43:31.706Z,20.66
2022-10-06T14:45:36.103Z,20.63
2022-10-06T14:47:37.374Z,20.59
2022-10-06T14:49:38.695Z,20.56
2022-10-06T14:51:40.027Z,20.54
2022-10-06T14:53:41.433Z,20.50
2022-10-06T14:55:42.763Z,20.50
2022-10-06T14:57:44.259Z,20.46
2022-10-06T14:59:45.536Z,20.45
2022-10-06T15:01:46.877Z,20.43
2022-10-06T15:03:49.357Z,20.38
2022-10-06T15:06:29.467Z,20.38
2022-10-06T15:08:32.624Z,20.31
2022-10-06T15:10:33.904Z,20.27
2022-10-06T15:12:35.347Z,20.25
2022-10-06T15:14:39.634Z,20.21
2022-10-06T15:16:42.486Z,20.17
2022-10-06T15:18:43.790Z,20.12
2022-10-06T15:20:45.288Z,20.05
2022-10-06T15:22:46.564Z,19.99
2022-10-06T15:24:50.380Z,19.95
2022-10-06T15:27:10.318Z,19.90
2022-10-06T15:29:11.590Z,19.87
2022-10-06T15:31:12.953Z,19.84
2022-10-06T15:33:14.319Z,19.81
2022-10-06T15:35:15.603Z,19.78
2022-10-06T15:37:19.932Z,19.76
2022-10-06T15:39:21.453Z,19.74
2022-10-06T15:41:22.767Z,19.72
2022-10-06T15:43:44.174Z,19.70
2022-10-06T15:45:45.431Z,19.67
2022-10-06T15:47:47.012Z,19.66
2022-10-06T15:49:49.305Z,19.63
2022-10-06T15:51:50.602Z,19.62
2022-10-06T15:53:51.883Z,18.89
2022-10-06T15:55:53.814Z,19.58
2022-10-06T15:57:55.760Z,19.57
2022-10-06T15:59:57.116Z,19.53
2022-10-06T16:02:00.580Z,19.53
2022-10-06T16:04:08.278Z,19.52
2022-10-06T16:06:16.588Z,20.18
2022-10-06T16:08:17.946Z,21.12
2022-10-06T16:10:19.242Z,21.57
2022-10-06T16:12:20.569Z,21.66
2022-10-06T16:14:22.048Z,21.73
2022-10-06T16:16:23.348Z,21.91
2022-10-06T16:18:24.706Z,21.69
2022-10-06T16:20:25.971Z,21.62
2022-10-06T16:22:27.237Z,21.70
2022-10-06T16:24:28.591Z,21.90
2022-10-06T16:26:30.102Z,21.93
2022-10-06T16:28:31.401Z,21.45
2022-10-06T16:30:32.765Z,21.01
2022-10-06T16:32:34.092Z,20.70
2022-10-06T16:34:35.366Z,20.52
2022-10-06T16:36:39.510Z,20.40
2022-10-06T16:38:40.851Z,20.34
2022-10-06T16:40:42.308Z,20.31
2022-10-06T16:42:45.051Z,20.28
2022-10-06T16:44:46.430Z,20.29
2022-10-06T16:46:47.777Z,20.30
2022-10-06T16:48:49.123Z,20.30
2022-10-06T16:50:50.419Z,20.32
2022-10-06T16:52:51.864Z,20.32
2022-10-06T16:54:53.141Z,20.31
2022-10-06T16:56:55.302Z,20.31
2022-10-06T16:58:56.590Z,20.29
2022-10-06T17:00:57.970Z,20.28
2022-10-06T17:02:59.293Z,20.28
2022-10-06T17:05:00.640Z,20.28
2022-10-06T17:07:02.182Z,20.28
2022-10-06T17:09:03.514Z,20.30
2022-10-06T17:11:04.950Z,20.30
2022-10-06T17:13:06.361Z,20.30
2022-10-06T17:15:07.675Z,20.34
2022-10-06T17:17:09.026Z,20.93
2022-10-06T17:19:10.294Z,20.90
2022-10-06T17:21:32.352Z,20.55
2022-10-06T17:23:33.069Z,21.06
2022-10-06T17:25:34.408Z,21.18
2022-10-06T17:27:41.850Z,21.22
2022-10-06T17:29:44.894Z,21.24
2022-10-06T17:31:46.300Z,21.45
2022-10-06T17:33:47.648Z,21.51
2022-10-06T17:35:49.575Z,21.46
2022-10-06T17:37:50.884Z,21.45
2022-10-06T17:39:52.171Z,21.50
2022-10-06T17:41:53.677Z,21.47
2022-10-06T17:43:54.956Z,21.49
2022-10-06T17:45:56.280Z,21.22
2022-10-06T17:47:58.082Z,20.98
2022-10-06T17:50:00.488Z,20.83
2022-10-06T17:52:02.099Z,20.88
2022-10-06T17:54:03.709Z,21.68
2022-10-06T17:56:06.379Z,21.54
2022-10-06T17:58:08.498Z,21.09
2022-10-06T18:00:09.954Z,21.59
2022-10-06T18:02:13.449Z,21.60
2022-10-06T18:04:18.360Z,21.58
2022-10-06T18:06:19.682Z,21.57
2022-10-06T18:08:23.623Z,21.60
2022-10-06T18:10:43.769Z,21.74
2022-10-06T18:12:45.349Z,21.63
2022-10-06T18:14:48.412Z,21.24
2022-10-06T18:16:55.737Z,20.98
2022-10-06T18:19:01.946Z,20.86
2022-10-06T18:21:04.021Z,20.82
2022-10-06T18:23:05.295Z,20.79
2022-10-06T18:25:06.605Z,20.77
2022-10-06T18:27:08.227Z,20.76
2022-10-06T18:29:10.737Z,20.73
2022-10-06T18:31:12.094Z,20.74
2022-10-06T18:36:06.743Z,20.72
2022-10-06T18:37:56.770Z,20.71
2022-10-06T18:39:58.117Z,20.70
2022-10-06T18:42:02.848Z,20.70
2022-10-06T18:44:07.263Z,20.68
2022-10-06T18:46:27.370Z,20.65
2022-10-06T18:48:47.119Z,20.63
2022-10-06T18:50:48.384Z,20.50
2022-10-06T18:52:49.668Z,20.46
2022-10-06T18:54:50.929Z,20.78
2022-10-06T18:56:52.310Z,21.13
2022-10-06T18:58:53.651Z,21.31
2022-10-06T19:00:55.997Z,21.46
2022-10-06T19:02:57.382Z,21.55
2022-10-06T19:04:58.901Z,21.50
2022-10-06T19:07:00.237Z,21.86
2022-10-06T19:09:01.811Z,21.78
2022-10-06T19:11:21.486Z,21.69
2022-10-06T19:13:24.308Z,21.68
2022-10-06T19:15:25.622Z,21.97
2022-10-06T19:17:26.900Z,21.96
2022-10-06T19:19:28.214Z,21.77
2022-10-06T19:21:31.436Z,21.74
2022-10-06T19:23:33.994Z,21.80
2022-10-06T19:25:35.603Z,21.59
2022-10-06T19:27:37.026Z,21.25
2022-10-06T19:29:38.371Z,21.64
2022-10-06T19:31:41.396Z,22.16
2022-10-06T19:33:43.301Z,21.85
2022-10-06T19:35:44.795Z,21.94
2022-10-06T19:37:46.393Z,21.87
2022-10-06T19:39:50.108Z,21.89
2022-10-06T19:42:10.162Z,21.89
2022-10-06T19:44:11.460Z,22.00
2022-10-06T19:46:12.884Z,22.00
2022-10-06T19:48:14.224Z,22.05
2022-10-06T19:50:16.258Z,22.07
2022-10-06T19:52:18.559Z,22.24
2022-10-06T19:54:19.928Z,22.38
2022-10-06T19:56:21.328Z,22.26
2022-10-06T19:58:22.990Z,22.40
2022-10-06T20:00:24.490Z,22.33
2022-10-06T20:02:25.843Z,20.12
2022-10-06T20:04:27.206Z,18.81
2022-10-06T20:06:30.505Z,19.41
2022-10-06T20:08:31.782Z,20.32
2022-10-06T20:10:34.561Z,20.67
2022-10-06T20:12:35.956Z,20.82
2022-10-06T20:14:37.443Z,20.88
2022-10-06T20:16:40.906Z,20.92
2022-10-06T20:18:42.268Z,20.94
2022-10-06T20:20:43.536Z,20.93
2022-10-06T20:22:45.482Z,20.93
2022-10-06T20:24:47.788Z,20.91
2022-10-06T20:26:49.058Z,20.05
2022-10-06T20:28:50.395Z,20.87
2022-10-06T20:30:51.932Z,20.85
2022-10-06T20:32:53.611Z,20.84
2022-10-06T20:34:54.882Z,20.83
2022-10-06T20:36:59.662Z,20.84
2022-10-06T20:39:19.716Z,20.86
2022-10-06T20:41:21.011Z,20.87
2022-10-06T20:43:23.394Z,20.87
2022-10-06T20:45:24.695Z,20.86
2022-10-06T20:47:25.961Z,20.88
2022-10-06T20:49:27.299Z,20.88
2022-10-06T20:51:29.383Z,20.87
2022-10-06T20:53:33.802Z,20.83
2022-10-06T20:55:35.298Z,20.82
2022-10-06T20:57:36.899Z,20.85
2022-10-06T20:59:38.233Z,20.79
2022-10-06T21:01:42.529Z,20.75
2022-10-06T21:03:44.283Z,20.70
2022-10-06T21:05:45.679Z,20.67
2022-10-06T21:07:47.325Z,20.64
2022-10-06T21:09:52.010Z,20.63
2022-10-06T21:11:53.646Z,20.60
2022-10-06T21:13:55.237Z,20.58
2022-10-06T21:15:56.554Z,20.57
2022-10-06T21:17:57.898Z,20.53
2022-10-06T21:19:59.237Z,20.51
2022-10-06T21:22:00.564Z,20.49
2022-10-06T21:24:01.846Z,20.48
2022-10-06T21:26:03.201Z,20.47
2022-10-06T21:28:04.678Z,20.44
2022-10-06T21:30:05.987Z,20.42
2022-10-06T21:32:10.052Z,20.41
2022-10-06T21:34:11.365Z,20.37
2022-10-06T21:36:15.534Z,20.34
2022-10-06T21:38:17.162Z,20.34
2022-10-06T21:40:18.469Z,20.33
2022-10-06T21:42:19.750Z,20.36
2022-10-06T21:44:21.080Z,20.37
2022-10-06T21:46:28.409Z,20.39
2022-10-06T21:48:30.212Z,20.41
2022-10-06T21:50:31.485Z,20.40
2022-10-06T21:52:33.186Z,20.40
2022-10-06T21:54:34.549Z,20.38
2022-10-06T21:56:35.882Z,20.39
2022-10-06T21:58:37.167Z,20.40
2022-10-06T22:00:38.459Z,20.41
2022-10-06T22:02:40.198Z,20.45
2022-10-06T22:04:41.799Z,20.49
2022-10-06T22:06:43.120Z,20.50
2022-10-06T22:08:44.458Z,20.49
2022-10-06T22:10:45.766Z,20.50
2022-10-06T22:12:47.085Z,20.49
2022-10-06T22:14:48.406Z,20.49
2022-10-06T22:16:49.750Z,20.48
2022-10-06T22:18:51.038Z,20.47
2022-10-06T22:20:52.342Z,20.46
2022-10-06T22:22:53.607Z,20.47
2022-10-06T22:24:54.925Z,20.47
2022-10-06T22:26:58.800Z,20.46
2022-10-06T22:29:00.078Z,20.48
2022-10-06T22:31:01.391Z,20.57
2022-10-06T22:33:02.727Z,20.51
2022-10-06T22:35:04.082Z,20.55
2022-10-06T22:37:05.419Z,20.55
2022-10-06T22:39:06.698Z,20.55
2022-10-06T22:41:08.182Z,20.56
2022-10-06T22:43:10.225Z,20.58
2022-10-06T22:45:11.543Z,20.58
2022-10-06T22:47:12.866Z,20.58
2022-10-06T22:49:14.375Z,20.58
2022-10-06T22:51:15.642Z,20.58
2022-10-06T22:53:16.930Z,20.57
2022-10-06T22:55:18.259Z,20.56
2022-10-06T22:57:19.521Z,20.54
2022-10-06T22:59:20.858Z,20.52
2022-10-06T23:01:22.182Z,20.51
2022-10-06T23:03:23.515Z,20.51
2022-10-06T23:05:24.886Z,20.52
2022-10-06T23:07:26.208Z,20.51
2022-10-06T23:09:27.490Z,20.51
2022-10-06T23:11:28.887Z,20.49
2022-10-06T23:13:30.245Z,20.49
2022-10-06T23:15:31.531Z,20.53
2022-10-06T23:17:32.841Z,20.53
2022-10-06T23:19:34.115Z,20.50
2022-10-06T23:21:36.953Z,20.47
2022-10-06T23:23:38.469Z,20.47
2022-10-06T23:25:39.803Z,20.45
2022-10-06T23:27:41.258Z,20.45
2022-10-06T23:29:42.698Z,20.43
2022-10-06T23:31:44.064Z,20.44
2022-10-06T23:33:45.323Z,20.43
2022-10-06T23:35:46.590Z,20.42
2022-10-06T23:37:47.909Z,20.46
2022-10-06T23:39:49.166Z,20.51
2022-10-06T23:41:50.609Z,20.51
2022-10-06T23:43:52.245Z,20.52
2022-10-06T23:45:53.566Z,20.50
2022-10-06T23:47:54.887Z,20.50
2022-10-06T23:49:56.218Z,20.50
2022-10-06T23:51:57.554Z,20.50
2022-10-06T23:53:58.865Z,20.51
2022-10-06T23:56:00.195Z,20.51
2022-10-06T23:58:01.518Z,20.56
